»·PEaware :: N326MC KLAS-KABQ

N326MC :: KLAS-KABQ

FLIGHT INFORMATION

Flight Status: Arrived
Operator: Privately registered:
United States
More flights under this callsign
Pilot: Anonymous 5456 (5456)
Aircraft: BOEING 737-200
(B732)
More flights by this aircraft type
Origin: KLAS McCarran Intl
United States
Destination: KABQ Albuquerque Intl Sunport
United States
More flights between these airports :: More routes between these airports
Route: +HOOVR6 PGS J72 GUP CURLY3
File this flight plan on PilotEdge
Remarks:
Altitude:
(Current/Filed)
31,000ft
Speed:
(Current/Filed)
480kts
Departed: 13-Jan-18 11:09 AM
Arrived: 13-Jan-18 12:26 PM
Distance/Time
Traveled:
421nm/1:17
Distance/Time
To Go:
Arrived

Flight Plot

Page will automatically refresh every two minutes.

Flight plan parsing failed; only flown route is shown


Map Options




Map Legend


Flown Route
Filed Route
Departure Airport
Arrival Airport
Navaid (VOR, NDB)
Fix

Horizontal Profiles

Position Reports

Time Latitude Longitude Heading Altitude Ground
Speed
13-Jan-18 10:54 36.100134 -115.159609 207 2150ft 0kts
13-Jan-18 10:55 36.100134 -115.159609 207 2150ft 0kts
13-Jan-18 10:56 36.100134 -115.159609 207 2150ft 0kts
13-Jan-18 10:57 36.100134 -115.159609 207 2150ft 0kts
13-Jan-18 10:58 36.100134 -115.159609 207 2150ft 0kts
13-Jan-18 10:59 36.100134 -115.159609 207 2150ft 0kts
13-Jan-18 11:00 36.100134 -115.159609 207 2150ft 0kts
13-Jan-18 11:01 36.100134 -115.159609 207 2150ft 0kts
13-Jan-18 11:02 36.100134 -115.159609 207 2150ft 0kts
13-Jan-18 11:03 36.100134 -115.159609 207 2150ft 0kts
13-Jan-18 11:04 36.100134 -115.159609 207 2150ft 0kts
13-Jan-18 11:05 36.100134 -115.159609 207 2150ft 0kts
13-Jan-18 11:06 36.100134 -115.159609 207 2150ft 0kts
13-Jan-18 11:07 36.100134 -115.159609 207 2150ft 0kts
13-Jan-18 11:08 36.100134 -115.159609 207 2150ft 0kts
13-Jan-18 11:09 36.100134 -115.159609 207 2150ft 0kts
13-Jan-18 11:10 36.100134 -115.159609 207 2150ft 0kts
13-Jan-18 11:11 36.100134 -115.159609 207 2150ft 0kts
13-Jan-18 11:12 36.099811 -115.157750 74 2150ft 3kts
13-Jan-18 11:13 36.099832 -115.157632 80 2150ft 0kts
13-Jan-18 11:14 36.097147 -115.157860 204 2150ft 40kts
13-Jan-18 11:15 36.059807 -115.178624 204 3401ft 206kts
13-Jan-18 11:16 36.011528 -115.220270 234 6711ft 225kts
13-Jan-18 11:17 35.970074 -115.281827 231 6838ft 264kts
13-Jan-18 11:18 35.921008 -115.332840 172 7284ft 221kts
13-Jan-18 11:19 35.892285 -115.278100 101 9359ft 235kts
13-Jan-18 11:20 35.874560 -115.186690 101 10578ft 318kts
13-Jan-18 11:21 35.855997 -115.089523 101 13165ft 328kts
13-Jan-18 11:22 35.835445 -114.979419 101 15574ft 341kts
13-Jan-18 11:23 35.816300 -114.864167 98 17707ft 353kts
13-Jan-18 11:24 35.799816 -114.745310 98 19583ft 364kts
13-Jan-18 11:25 35.782595 -114.623114 98 21250ft 375kts
13-Jan-18 11:26 35.764364 -114.494891 98 22767ft 384kts
13-Jan-18 11:27 35.745445 -114.362807 98 23434ft 413kts
13-Jan-18 11:28 35.724571 -114.218384 98 23423ft 449kts
13-Jan-18 11:29 35.702292 -114.065681 99 23418ft 475kts
13-Jan-18 11:30 35.678737 -113.905745 99 23920ft 483kts
13-Jan-18 11:31 35.655690 -113.750815 98 26317ft 446kts
13-Jan-18 11:32 35.633931 -113.605685 98 28222ft 423kts
13-Jan-18 11:33 35.624021 -113.468926 88 29624ft 409kts
13-Jan-18 11:34 35.621979 -113.336337 89 30039ft 423kts
13-Jan-18 11:35 35.619909 -113.197448 89 30323ft 435kts
13-Jan-18 11:36 35.617555 -113.049792 89 30890ft 440kts
13-Jan-18 11:37 35.614972 -112.899863 88 31386ft 444kts
13-Jan-18 11:38 35.612186 -112.747587 88 31469ft 458kts
13-Jan-18 11:39 35.609108 -112.590608 88 31468ft 471kts
13-Jan-18 11:40 35.605735 -112.429809 88 31467ft 481kts
13-Jan-18 11:41 35.601486 -112.270474 89 31463ft 489kts
13-Jan-18 11:42 35.596570 -112.105572 89 31461ft 494kts
13-Jan-18 11:43 35.591377 -111.939051 89 31459ft 495kts
13-Jan-18 11:44 35.587494 -111.772380 88 31462ft 491kts
13-Jan-18 11:45 35.584230 -111.606852 88 31473ft 488kts
13-Jan-18 11:46 35.580288 -111.442808 89 31476ft 486kts
13-Jan-18 11:47 35.575456 -111.284412 90 31478ft 485kts
13-Jan-18 11:48 35.570235 -111.120800 90 31491ft 483kts
13-Jan-18 11:49 35.564755 -110.956944 89 31492ft 482kts
13-Jan-18 11:50 35.559099 -110.792998 88 31494ft 483kts
13-Jan-18 11:51 35.553191 -110.628569 88 31495ft 483kts
13-Jan-18 11:52 35.547046 -110.464012 88 31496ft 483kts
13-Jan-18 11:53 35.540848 -110.303763 89 31492ft 484kts
13-Jan-18 11:54 35.534280 -110.139785 89 31493ft 483kts
13-Jan-18 11:55 35.527447 -109.974803 89 31494ft 483kts
13-Jan-18 11:56 35.520400 -109.810088 89 31494ft 484kts
13-Jan-18 11:57 35.513162 -109.646179 89 31495ft 484kts
13-Jan-18 11:58 35.505646 -109.481042 89 31496ft 484kts
13-Jan-18 11:59 35.498094 -109.319874 90 31492ft 485kts
13-Jan-18 12:00 35.490154 -109.155323 90 31319ft 489kts
13-Jan-18 12:01 35.481775 -108.986750 89 29726ft 496kts
13-Jan-18 12:02 35.474654 -108.820291 87 29500ft 483kts
13-Jan-18 12:03 35.470355 -108.657321 87 29343ft 477kts
13-Jan-18 12:04 35.465820 -108.492876 88 27642ft 482kts
13-Jan-18 12:05 35.461244 -108.335251 89 26060ft 476kts
13-Jan-18 12:06 35.456570 -108.181085 89 24518ft 470kts
13-Jan-18 12:07 35.451571 -108.022971 89 22976ft 464kts
13-Jan-18 12:08 35.446498 -107.868747 89 21507ft 458kts
13-Jan-18 12:09 35.441248 -107.715116 90 20078ft 452kts
13-Jan-18 12:10 35.435878 -107.563584 90 18704ft 447kts
13-Jan-18 12:11 35.430380 -107.413587 90 17370ft 439kts
13-Jan-18 12:12 35.424951 -107.270138 91 16055ft 429kts
13-Jan-18 12:13 35.413616 -107.128156 112 15003ft 426kts
13-Jan-18 12:14 35.328312 -107.028923 147 15196ft 433kts
13-Jan-18 12:15 35.229859 -106.953406 149 12825ft 399kts
13-Jan-18 12:16 35.142827 -106.889094 149 10626ft 347kts
13-Jan-18 12:17 35.066461 -106.831443 135 8962ft 301kts
13-Jan-18 12:18 34.996751 -106.805886 189 7988ft 265kts
13-Jan-18 12:19 34.930353 -106.816553 189 7996ft 228kts
13-Jan-18 12:20 34.872375 -106.824096 177 7470ft 224kts
13-Jan-18 12:21 34.814003 -106.821237 178 7243ft 198kts
13-Jan-18 12:22 34.760347 -106.818101 178 7204ft 193kts
13-Jan-18 12:23 34.740932 -106.775160 38 7227ft 192kts
13-Jan-18 12:24 34.794572 -106.759688 2 7204ft 207kts
13-Jan-18 12:25 34.844203 -106.788608 329 7248ft 190kts
13-Jan-18 12:26 34.889985 -106.813009 12 7196ft 175kts
13-Jan-18 12:27 34.912879 -106.763857 50 7186ft 175kts
13-Jan-18 12:28 34.946456 -106.721957 41 7190ft 172kts
13-Jan-18 12:29 34.977764 -106.684215 41 6620ft 152kts
13-Jan-18 12:30 35.006329 -106.649824 41 5837ft 142kts
13-Jan-18 12:31 35.032817 -106.617907 44 5363ft 101kts
13-Jan-18 12:32 35.037644 -106.613520 306 5363ft 0kts

Navigation Log

Ident Type
Flight plan parsing failed, navigation log unavailable